createdAt,value
2022-12-23T00:01:51.106Z,92.18
2022-12-23T00:04:17.988Z,92.26
2022-12-23T00:06:44.696Z,92.02
2022-12-23T00:09:11.429Z,92.02
2022-12-23T00:11:58.127Z,92.04
2022-12-23T00:14:43.828Z,92.05
2022-12-23T00:17:22.055Z,92.09
2022-12-23T00:19:49.772Z,92.09
2022-12-23T00:22:16.617Z,92.25
2022-12-23T00:24:43.328Z,92.16
2022-12-23T00:27:10.035Z,92.27
2022-12-23T00:29:36.680Z,92.17
2022-12-23T00:32:03.399Z,92.39
2022-12-23T00:34:30.084Z,92.30
2022-12-23T00:36:57.023Z,92.30
2022-12-23T00:39:42.087Z,92.28
2022-12-23T00:42:27.640Z,92.29
2022-12-23T00:45:14.419Z,92.29
2022-12-23T00:48:00.450Z,92.37
2022-12-23T00:50:28.166Z,92.16
2022-12-23T00:52:54.908Z,92.13
2022-12-23T00:55:21.734Z,92.11
2022-12-23T00:57:48.429Z,92.15
2022-12-23T01:00:15.693Z,92.09
2022-12-23T01:03:01.172Z,92.04
2022-12-23T01:05:37.103Z,92.12
2022-12-23T01:08:11.975Z,92.11
2022-12-23T01:10:40.571Z,91.96
2022-12-23T01:13:07.660Z,92.02
2022-12-23T01:15:34.592Z,92.13
2022-12-23T01:18:01.281Z,92.11
2022-12-23T01:20:27.900Z,92.24
2022-12-23T01:22:54.621Z,92.13
2022-12-23T01:25:21.362Z,92.18
2022-12-23T01:27:48.078Z,92.11
2022-12-23T01:30:14.973Z,92.25
2022-12-23T01:32:41.668Z,92.23
2022-12-23T01:35:08.548Z,92.30
2022-12-23T01:37:35.671Z,92.28
2022-12-23T01:40:02.444Z,92.41
2022-12-23T01:42:44.412Z,92.50
2022-12-23T01:45:31.149Z,92.34
2022-12-23T01:48:10.449Z,92.38
2022-12-23T01:50:41.966Z,92.89
2022-12-23T01:53:17.398Z,92.41
2022-12-23T01:55:52.009Z,92.47
2022-12-23T01:58:24.338Z,92.59
2022-12-23T02:01:10.635Z,92.47
2022-12-23T02:03:43.384Z,92.60
2022-12-23T02:06:49.172Z,92.32
2022-12-23T02:09:34.080Z,92.50
2022-12-23T02:12:37.497Z,92.54
2022-12-23T02:15:38.245Z,92.57
2022-12-23T02:18:26.189Z,92.63
2022-12-23T02:21:14.580Z,92.60
2022-12-23T02:23:50.169Z,92.67
2022-12-23T02:26:31.935Z,92.57
2022-12-23T02:29:21.920Z,92.80
2022-12-23T02:32:07.926Z,92.65
2022-12-23T02:34:46.562Z,92.62
2022-12-23T02:37:34.552Z,92.57
2022-12-23T02:40:21.710Z,92.60
2022-12-23T02:43:02.405Z,92.48
2022-12-23T02:45:40.907Z,92.53
2022-12-23T02:48:22.469Z,92.50
2022-12-23T02:50:53.447Z,92.47
2022-12-23T02:53:28.090Z,92.41
2022-12-23T02:55:56.156Z,92.52
2022-12-23T02:58:29.292Z,92.63
2022-12-23T03:00:58.127Z,92.58
2022-12-23T03:03:26.334Z,92.74
2022-12-23T03:05:54.595Z,92.72
2022-12-23T03:08:26.234Z,92.80
2022-12-23T03:11:07.345Z,92.74
2022-12-23T03:14:08.194Z,92.90
2022-12-23T03:17:14.442Z,92.97
2022-12-23T03:19:54.420Z,93.15
2022-12-23T03:22:38.433Z,93.19
2022-12-23T03:25:31.799Z,93.12
2022-12-23T03:28:06.372Z,93.09
2022-12-23T03:30:35.737Z,93.41
2022-12-23T03:33:12.972Z,93.32
2022-12-23T03:35:51.919Z,93.33
2022-12-23T03:38:20.178Z,93.42
2022-12-23T03:40:58.284Z,93.56
2022-12-23T03:43:29.134Z,93.46
2022-12-23T03:46:05.120Z,93.61
2022-12-23T03:48:48.868Z,93.60
2022-12-23T03:51:23.108Z,93.76
2022-12-23T03:54:00.910Z,93.53
2022-12-23T03:56:36.654Z,93.83
2022-12-23T03:59:14.425Z,93.83
2022-12-23T04:01:57.969Z,93.85
2022-12-23T04:04:52.145Z,93.75
2022-12-23T04:07:25.346Z,93.88
2022-12-23T04:09:53.564Z,94.00
2022-12-23T04:12:24.022Z,93.95
2022-12-23T04:14:51.150Z,93.97
2022-12-23T04:17:18.644Z,94.05
2022-12-23T04:19:46.229Z,94.03
2022-12-23T04:22:13.870Z,94.31
2022-12-23T04:24:42.977Z,94.20
2022-12-23T04:27:13.100Z,94.20
2022-12-23T04:29:39.903Z,94.45
2022-12-23T04:32:08.293Z,94.25
2022-12-23T04:34:35.130Z,94.26
2022-12-23T04:37:01.808Z,94.37
2022-12-23T04:39:28.564Z,94.64
2022-12-23T04:41:55.387Z,94.46
2022-12-23T04:44:22.132Z,94.56
2022-12-23T04:46:48.912Z,94.80
2022-12-23T04:49:15.737Z,94.61
2022-12-23T04:51:42.411Z,94.90
2022-12-23T04:54:09.196Z,94.91
2022-12-23T04:56:36.172Z,94.84
2022-12-23T04:59:04.322Z,94.93
2022-12-23T05:01:31.140Z,94.84
2022-12-23T05:03:58.151Z,94.85
2022-12-23T05:06:24.986Z,94.84
2022-12-23T05:08:51.869Z,94.88
2022-12-23T05:11:19.019Z,95.02
2022-12-23T05:13:45.659Z,94.80
2022-12-23T05:16:12.412Z,95.07
2022-12-23T05:18:39.298Z,94.93
2022-12-23T05:21:06.002Z,95.00
2022-12-23T05:23:33.046Z,95.03
2022-12-23T05:25:59.698Z,95.29
2022-12-23T05:28:26.454Z,95.39
2022-12-23T05:31:05.278Z,95.28
2022-12-23T05:33:33.634Z,95.45
2022-12-23T05:36:00.498Z,95.75
2022-12-23T05:38:27.480Z,95.55
2022-12-23T05:40:54.219Z,95.93
2022-12-23T05:43:21.536Z,95.99
2022-12-23T05:45:49.295Z,96.14
2022-12-23T05:48:15.956Z,96.20
2022-12-23T05:50:42.641Z,96.21
2022-12-23T05:53:09.492Z,96.01
2022-12-23T05:55:36.668Z,96.15
2022-12-23T05:58:03.386Z,96.16
2022-12-23T06:00:30.292Z,96.42
2022-12-23T06:02:57.248Z,96.20
2022-12-23T06:05:24.153Z,96.25
2022-12-23T06:07:50.918Z,96.28
2022-12-23T06:10:17.933Z,96.36
2022-12-23T06:12:44.625Z,96.44
2022-12-23T06:15:11.656Z,96.33
2022-12-23T06:17:38.443Z,96.19
2022-12-23T06:20:05.684Z,96.30
2022-12-23T06:22:32.665Z,96.42
2022-12-23T06:24:59.471Z,96.06
2022-12-23T06:27:26.135Z,96.10
2022-12-23T06:29:52.971Z,96.10
2022-12-23T06:32:19.758Z,96.08
2022-12-23T06:34:46.858Z,96.01
2022-12-23T06:37:13.666Z,95.92
2022-12-23T06:39:40.498Z,95.93
2022-12-23T06:42:07.107Z,95.89
2022-12-23T06:44:33.849Z,95.91
2022-12-23T06:47:00.641Z,95.61
2022-12-23T06:49:27.271Z,95.81
2022-12-23T06:51:54.326Z,95.57
2022-12-23T06:54:20.974Z,95.75
2022-12-23T06:56:47.601Z,95.39
2022-12-23T06:59:14.429Z,95.46
2022-12-23T07:01:41.186Z,95.56
2022-12-23T07:04:07.979Z,95.33
2022-12-23T07:06:34.950Z,95.13
2022-12-23T07:09:02.238Z,95.24
2022-12-23T07:11:28.885Z,95.46
2022-12-23T07:13:55.729Z,95.56
2022-12-23T07:16:22.602Z,95.28
2022-12-23T07:18:49.407Z,95.32
2022-12-23T07:21:24.893Z,95.07
2022-12-23T07:23:55.579Z,95.29
2022-12-23T07:26:22.289Z,95.12
2022-12-23T07:28:49.158Z,95.40
2022-12-23T07:31:16.345Z,95.21
2022-12-23T07:33:43.280Z,94.99
2022-12-23T07:36:10.137Z,95.22
2022-12-23T07:38:37.007Z,95.24
2022-12-23T07:41:03.871Z,95.33
2022-12-23T07:43:30.495Z,95.08
2022-12-23T07:46:00.485Z,95.29
2022-12-23T07:48:27.898Z,95.36
2022-12-23T07:51:02.991Z,95.04
2022-12-23T07:53:29.964Z,95.34
2022-12-23T07:55:57.136Z,95.36
2022-12-23T07:58:24.300Z,95.10
2022-12-23T08:00:51.629Z,95.34
2022-12-23T08:03:18.383Z,95.09
2022-12-23T08:05:45.345Z,95.33
2022-12-23T08:08:12.804Z,95.09
2022-12-23T08:10:46.136Z,95.15
2022-12-23T08:13:14.967Z,95.20
2022-12-23T08:15:41.657Z,95.33
2022-12-23T08:18:08.279Z,95.38
2022-12-23T08:20:35.148Z,95.27
2022-12-23T08:23:01.775Z,95.44
2022-12-23T08:25:28.468Z,95.54
2022-12-23T08:27:55.396Z,95.46
2022-12-23T08:30:22.123Z,95.31
2022-12-23T08:32:48.735Z,95.33
2022-12-23T08:35:15.674Z,95.46
2022-12-23T08:37:42.255Z,95.32
2022-12-23T08:40:09.412Z,95.56
2022-12-23T08:42:36.136Z,95.30
2022-12-23T08:45:02.825Z,95.61
2022-12-23T08:47:29.482Z,95.49
2022-12-23T08:49:56.391Z,95.66
2022-12-23T08:52:23.015Z,95.51
2022-12-23T08:54:49.665Z,95.81
2022-12-23T08:57:16.896Z,95.83
2022-12-23T08:59:43.614Z,95.73
2022-12-23T09:02:11.859Z,95.95
2022-12-23T09:04:38.983Z,95.98
2022-12-23T09:07:06.107Z,95.60
2022-12-23T09:09:32.814Z,95.79
2022-12-23T09:11:59.541Z,95.72
2022-12-23T09:14:26.364Z,96.03
2022-12-23T09:16:53.192Z,95.91
2022-12-23T09:19:20.540Z,96.28
2022-12-23T09:21:47.641Z,96.07
2022-12-23T09:24:14.328Z,96.10
2022-12-23T09:26:41.288Z,96.29
2022-12-23T09:29:07.997Z,96.32
2022-12-23T09:31:37.801Z,96.48
2022-12-23T09:34:05.603Z,96.22
2022-12-23T09:36:32.505Z,96.28
2022-12-23T09:38:59.544Z,96.60
2022-12-23T09:41:48.992Z,96.42
2022-12-23T09:44:37.523Z,96.52
2022-12-23T09:47:11.379Z,96.62
2022-12-23T09:49:47.484Z,96.62
2022-12-23T09:52:20.458Z,96.86
2022-12-23T09:54:49.457Z,96.81
2022-12-23T09:57:46.737Z,96.69
2022-12-23T10:00:15.705Z,96.97
2022-12-23T10:02:54.808Z,96.95
2022-12-23T10:05:40.062Z,96.98
2022-12-23T10:08:34.581Z,96.87
2022-12-23T10:11:07.097Z,96.86
2022-12-23T10:13:39.727Z,97.03
2022-12-23T10:16:20.470Z,97.00
2022-12-23T10:19:04.974Z,97.08
2022-12-23T10:21:49.332Z,97.04
2022-12-23T10:24:23.190Z,97.31
2022-12-23T10:26:54.164Z,97.43
2022-12-23T10:29:24.304Z,97.13
2022-12-23T10:32:06.025Z,97.38
2022-12-23T10:34:44.633Z,97.51
2022-12-23T10:37:22.823Z,97.42
2022-12-23T10:40:17.411Z,97.46
2022-12-23T10:42:58.053Z,97.62
2022-12-23T10:45:43.448Z,97.58
2022-12-23T10:48:41.000Z,97.66
2022-12-23T10:51:22.305Z,97.68
2022-12-23T10:53:48.852Z,97.52
2022-12-23T10:56:16.193Z,97.96
2022-12-23T10:58:49.996Z,97.87
2022-12-23T11:01:26.573Z,97.88
2022-12-23T11:04:09.514Z,97.98
2022-12-23T11:06:43.731Z,97.99
2022-12-23T11:09:25.328Z,97.77
2022-12-23T11:11:53.476Z,98.05
2022-12-23T11:14:52.324Z,97.83
2022-12-23T11:17:20.927Z,97.73
2022-12-23T11:19:48.396Z,97.80
2022-12-23T11:22:25.678Z,97.92
2022-12-23T11:24:52.386Z,98.03
2022-12-23T11:27:19.835Z,97.95
2022-12-23T11:29:51.552Z,97.88
2022-12-23T11:32:24.606Z,98.11
2022-12-23T11:34:52.210Z,97.80
2022-12-23T11:37:28.355Z,97.90
2022-12-23T11:39:55.357Z,98.08
2022-12-23T11:42:27.970Z,97.77
2022-12-23T11:44:57.295Z,98.04
2022-12-23T11:47:24.028Z,98.00
2022-12-23T11:49:59.457Z,97.84
2022-12-23T11:52:29.057Z,98.14
2022-12-23T11:55:05.055Z,97.88
2022-12-23T11:57:49.038Z,98.27
2022-12-23T12:00:19.111Z,97.93
2022-12-23T12:02:49.183Z,97.94
2022-12-23T12:05:20.131Z,97.97
2022-12-23T12:07:48.286Z,98.23
2022-12-23T12:10:39.300Z,98.10
2022-12-23T12:13:19.424Z,97.90
2022-12-23T12:15:55.143Z,98.00
2022-12-23T12:18:22.901Z,97.84
2022-12-23T12:20:53.860Z,98.04
2022-12-23T12:23:43.154Z,98.19
2022-12-23T12:26:31.747Z,98.24
2022-12-23T12:29:15.560Z,98.25
2022-12-23T12:32:06.783Z,98.27
2022-12-23T12:34:49.838Z,98.44
2022-12-23T12:37:40.925Z,98.49
2022-12-23T12:40:26.593Z,98.40
2022-12-23T12:43:23.072Z,98.61
2022-12-23T12:46:10.861Z,98.75
2022-12-23T12:48:59.852Z,98.57
2022-12-23T12:51:33.957Z,98.32
2022-12-23T12:54:12.782Z,98.54
2022-12-23T12:56:54.068Z,98.68
2022-12-23T12:59:25.767Z,98.38
2022-12-23T13:02:27.744Z,98.56
2022-12-23T13:05:21.920Z,98.33
2022-12-23T13:07:54.449Z,98.67
2022-12-23T13:10:33.516Z,98.60
2022-12-23T13:13:22.317Z,98.41
2022-12-23T13:16:13.897Z,98.46
2022-12-23T13:18:52.459Z,98.41
2022-12-23T13:21:36.546Z,98.23
2022-12-23T13:24:14.021Z,97.99
2022-12-23T13:27:40.747Z,97.60
2022-12-23T13:30:51.096Z,97.48
2022-12-23T13:37:41.064Z,97.23
2022-12-23T13:40:28.308Z,96.96
2022-12-23T13:43:54.888Z,96.63
2022-12-23T13:51:08.591Z,96.45
2022-12-23T13:53:58.048Z,96.17
2022-12-23T13:57:01.346Z,96.33
2022-12-23T13:59:40.417Z,96.22
2022-12-23T14:02:36.572Z,96.33
2022-12-23T14:05:09.298Z,96.21
2022-12-23T14:07:38.578Z,95.96
2022-12-23T14:10:19.486Z,96.18
2022-12-23T14:12:47.604Z,96.05
2022-12-23T14:15:48.189Z,96.04
2022-12-23T14:18:40.586Z,95.85
2022-12-23T14:21:36.223Z,96.04
2022-12-23T14:24:18.914Z,96.03
2022-12-23T14:27:16.765Z,95.70
2022-12-23T14:29:52.868Z,95.90
2022-12-23T14:32:28.116Z,95.60
2022-12-23T14:35:06.325Z,95.60
2022-12-23T14:37:34.763Z,95.74
2022-12-23T14:40:39.504Z,95.71
2022-12-23T14:43:27.623Z,95.56
2022-12-23T14:45:55.337Z,95.39
2022-12-23T14:48:34.569Z,95.74
2022-12-23T14:51:10.386Z,95.38
2022-12-23T14:53:59.483Z,95.36
2022-12-23T14:56:26.313Z,95.61
2022-12-23T14:59:11.624Z,95.27
2022-12-23T15:02:03.721Z,95.32
2022-12-23T15:04:40.576Z,95.14
2022-12-23T15:07:33.560Z,94.79
2022-12-23T15:10:02.851Z,94.62
2022-12-23T15:12:40.098Z,94.59
2022-12-23T15:15:17.642Z,93.97
2022-12-23T15:17:44.965Z,93.59
2022-12-23T15:20:22.161Z,93.69
2022-12-23T15:22:49.625Z,93.40
2022-12-23T15:25:31.732Z,93.15
2022-12-23T15:28:02.364Z,93.25
2022-12-23T15:30:46.075Z,93.18
2022-12-23T15:34:00.192Z,92.61
2022-12-23T15:36:07.381Z,92.69
2022-12-23T15:38:37.645Z,92.62
2022-12-23T15:41:13.573Z,92.49
2022-12-23T15:43:44.574Z,92.15
2022-12-23T15:46:16.502Z,91.99
2022-12-23T15:48:43.816Z,92.23
2022-12-23T15:52:06.362Z,91.83
2022-12-23T15:54:44.143Z,92.12
2022-12-23T15:57:19.446Z,91.90
2022-12-23T15:59:46.430Z,91.55
2022-12-23T16:03:00.354Z,91.52
2022-12-23T16:05:38.260Z,91.45
2022-12-23T16:08:09.820Z,91.65
2022-12-23T16:10:36.998Z,91.68
2022-12-23T16:13:03.739Z,91.40
2022-12-23T16:15:33.635Z,91.64
2022-12-23T16:18:23.084Z,91.63
2022-12-23T16:21:00.632Z,91.36
2022-12-23T16:23:33.079Z,91.87
2022-12-23T16:26:02.582Z,91.53
2022-12-23T16:28:41.310Z,91.37
2022-12-23T16:31:10.771Z,91.44
2022-12-23T16:33:48.023Z,91.53
2022-12-23T16:36:27.009Z,91.61
2022-12-23T16:38:56.292Z,91.25
2022-12-23T16:41:23.520Z,91.48
2022-12-23T16:43:52.657Z,91.32
2022-12-23T16:46:22.715Z,91.27
2022-12-23T16:48:55.503Z,91.31
2022-12-23T16:51:22.709Z,91.24
2022-12-23T16:53:51.028Z,91.09
2022-12-23T16:56:19.833Z,91.12
2022-12-23T16:58:46.788Z,91.03
2022-12-23T17:01:18.049Z,91.10
2022-12-23T17:03:44.934Z,90.91
2022-12-23T17:06:15.928Z,90.97
2022-12-23T17:08:43.353Z,90.62
2022-12-23T17:11:18.931Z,90.59
2022-12-23T17:13:45.543Z,90.54
2022-12-23T17:16:20.090Z,90.46
2022-12-23T17:18:51.609Z,90.36
2022-12-23T17:21:33.882Z,90.27
2022-12-23T17:24:22.088Z,90.11
2022-12-23T17:26:49.604Z,90.08
2022-12-23T17:29:16.233Z,90.25
2022-12-23T17:31:43.829Z,90.04
2022-12-23T17:34:20.444Z,89.97
2022-12-23T17:36:50.364Z,89.92
2022-12-23T17:39:18.179Z,90.17
2022-12-23T17:41:45.135Z,90.10
2022-12-23T17:44:15.112Z,89.90
2022-12-23T17:46:42.384Z,90.00
2022-12-23T17:49:09.450Z,90.09
2022-12-23T17:51:36.155Z,90.12
2022-12-23T17:54:05.777Z,90.18
2022-12-23T17:56:32.884Z,90.08
2022-12-23T17:58:59.545Z,90.10
2022-12-23T18:01:31.358Z,90.26
2022-12-23T18:03:59.723Z,90.42
2022-12-23T18:06:28.642Z,90.24
2022-12-23T18:08:57.438Z,90.38
2022-12-23T18:11:30.749Z,90.51
2022-12-23T18:13:57.434Z,90.43
2022-12-23T18:16:24.201Z,90.44
2022-12-23T18:18:52.053Z,90.71
2022-12-23T18:21:25.052Z,90.70
2022-12-23T18:23:53.791Z,90.84
2022-12-23T18:26:21.006Z,91.04
2022-12-23T18:28:47.657Z,91.13
2022-12-23T18:33:45.371Z,91.31
2022-12-23T18:36:20.813Z,91.55
2022-12-23T18:38:47.510Z,91.39
2022-12-23T18:41:14.163Z,91.58
2022-12-23T18:43:41.087Z,91.61
2022-12-23T18:46:08.010Z,91.80
2022-12-23T18:48:34.749Z,91.80
2022-12-23T18:51:01.567Z,91.80
2022-12-23T18:53:28.211Z,91.63
2022-12-23T18:55:55.488Z,91.74
2022-12-23T18:58:22.907Z,91.66
2022-12-23T19:00:52.723Z,91.95
2022-12-23T19:03:25.791Z,91.75
2022-12-23T19:05:54.003Z,91.85
2022-12-23T19:08:27.181Z,91.90
2022-12-23T19:10:55.968Z,91.74
2022-12-23T19:13:23.489Z,91.68
2022-12-23T19:15:50.622Z,91.76
2022-12-23T19:18:19.732Z,91.85
2022-12-23T19:20:47.972Z,91.86
2022-12-23T19:23:15.105Z,91.86
2022-12-23T19:25:45.179Z,91.68
2022-12-23T19:28:19.017Z,91.66
2022-12-23T19:30:45.817Z,91.77
2022-12-23T19:33:13.366Z,91.36
2022-12-23T19:35:44.350Z,91.37
2022-12-23T19:38:11.245Z,91.53
2022-12-23T19:40:39.087Z,91.48
2022-12-23T19:43:05.706Z,91.32
2022-12-23T19:45:32.555Z,91.30
2022-12-23T19:47:59.214Z,91.40
2022-12-23T19:50:27.295Z,91.18
2022-12-23T19:52:56.462Z,90.84
2022-12-23T19:55:23.599Z,90.93
2022-12-23T19:57:50.315Z,91.17
2022-12-23T20:00:17.370Z,91.17
2022-12-23T20:02:44.229Z,91.10
2022-12-23T20:05:10.930Z,90.97
2022-12-23T20:07:37.717Z,90.58
2022-12-23T20:10:05.984Z,90.76
2022-12-23T20:12:32.793Z,90.89
2022-12-23T20:14:59.790Z,90.32
2022-12-23T20:17:26.494Z,90.54
2022-12-23T20:19:53.219Z,90.70
2022-12-23T20:22:20.340Z,90.58
2022-12-23T20:24:47.034Z,90.67
2022-12-23T20:27:15.963Z,90.63
2022-12-23T20:29:43.193Z,90.71
2022-12-23T20:32:10.411Z,90.71
2022-12-23T20:34:39.944Z,90.46
2022-12-23T20:37:07.512Z,90.38
2022-12-23T20:39:34.681Z,90.77
2022-12-23T20:42:01.355Z,90.76
2022-12-23T20:44:36.829Z,90.38
2022-12-23T20:47:06.136Z,90.51
2022-12-23T20:49:33.299Z,90.48
2022-12-23T20:52:00.054Z,90.17
2022-12-23T20:54:32.791Z,90.17
2022-12-23T20:57:03.207Z,90.15
2022-12-23T20:59:29.860Z,89.97
2022-12-23T21:01:59.121Z,90.23
2022-12-23T21:04:26.373Z,90.20
2022-12-23T21:06:53.043Z,90.07
2022-12-23T21:09:19.728Z,89.80
2022-12-23T21:11:47.827Z,89.80
2022-12-23T21:14:15.501Z,90.03
2022-12-23T21:16:42.594Z,89.82
2022-12-23T21:19:15.769Z,89.86
2022-12-23T21:21:42.502Z,89.69
2022-12-23T21:24:10.063Z,89.56
2022-12-23T21:26:37.184Z,89.72
2022-12-23T21:29:06.361Z,89.74
2022-12-23T21:31:35.317Z,89.53
2022-12-23T21:34:03.217Z,89.39
2022-12-23T21:36:33.019Z,89.40
2022-12-23T21:39:00.305Z,89.39
2022-12-23T21:41:29.546Z,89.13
2022-12-23T21:43:57.556Z,89.27
2022-12-23T21:46:24.950Z,89.27
2022-12-23T21:48:52.506Z,89.14
2022-12-23T21:51:23.725Z,88.85
2022-12-23T21:53:52.516Z,89.07
2022-12-23T21:56:27.801Z,88.77
2022-12-23T21:59:14.101Z,88.91
2022-12-23T22:01:42.423Z,88.98
2022-12-23T22:04:09.165Z,88.89
2022-12-23T22:06:43.758Z,88.70
2022-12-23T22:09:19.137Z,88.80
2022-12-23T22:11:47.140Z,88.70
2022-12-23T22:14:17.418Z,88.85
2022-12-23T22:16:44.184Z,88.61
2022-12-23T22:19:12.211Z,88.53
2022-12-23T22:21:39.838Z,88.68
2022-12-23T22:24:07.147Z,88.41
2022-12-23T22:26:34.635Z,88.26
2022-12-23T22:29:04.376Z,88.23
2022-12-23T22:31:48.625Z,88.17
2022-12-23T22:34:18.677Z,88.47
2022-12-23T22:36:45.738Z,88.37
2022-12-23T22:39:20.914Z,88.32
2022-12-23T22:41:49.102Z,88.26
2022-12-23T22:44:16.404Z,88.01
2022-12-23T22:46:43.701Z,88.12
2022-12-23T22:49:14.516Z,87.95
2022-12-23T22:51:42.258Z,88.05
2022-12-23T22:54:09.307Z,88.06
2022-12-23T22:56:36.256Z,87.81
2022-12-23T22:59:03.022Z,87.90
2022-12-23T23:01:32.927Z,87.71
2022-12-23T23:04:01.400Z,87.74
2022-12-23T23:06:30.513Z,87.49
2022-12-23T23:08:58.329Z,87.79
2022-12-23T23:11:27.354Z,87.72
2022-12-23T23:13:54.342Z,87.71
2022-12-23T23:16:23.119Z,87.50
2022-12-23T23:18:51.065Z,87.54
2022-12-23T23:21:17.834Z,87.79
2022-12-23T23:23:44.628Z,87.89
2022-12-23T23:26:11.901Z,87.96
2022-12-23T23:28:39.594Z,87.86
2022-12-23T23:31:40.507Z,87.88
2022-12-23T23:33:54.174Z,87.90
2022-12-23T23:36:21.312Z,88.08
2022-12-23T23:38:47.996Z,88.01
2022-12-23T23:41:18.859Z,88.14
2022-12-23T23:43:49.674Z,88.21
2022-12-23T23:46:16.463Z,88.43
2022-12-23T23:48:43.140Z,88.34
2022-12-23T23:51:10.069Z,88.09
2022-12-23T23:53:36.711Z,88.24
2022-12-23T23:56:07.561Z,88.37
2022-12-23T23:58:36.041Z,88.25
